sensor_id;sensor_type;location;lat;lon;timestamp;P1;durP1;ratioP1;P2;durP2;ratioP2
1276;SDS011;631;51.024;13.826;2023-10-09T00:01:44;13.57;;;12.77;;
1276;SDS011;631;51.024;13.826;2023-10-09T00:04:11;13.80;;;13.10;;
1276;SDS011;631;51.024;13.826;2023-10-09T00:06:38;13.93;;;13.23;;
1276;SDS011;631;51.024;13.826;2023-10-09T00:09:07;14.97;;;13.97;;
1276;SDS011;631;51.024;13.826;2023-10-09T00:11:55;15.33;;;14.13;;
1276;SDS011;631;51.024;13.826;2023-10-09T00:14:25;14.77;;;13.87;;
1276;SDS011;631;51.024;13.826;2023-10-09T00:16:55;14.40;;;13.60;;
1276;SDS011;631;51.024;13.826;2023-10-09T00:19:41;14.23;;;13.20;;
1276;SDS011;631;51.024;13.826;2023-10-09T00:22:08;14.40;;;13.57;;
1276;SDS011;631;51.024;13.826;2023-10-09T00:24:42;14.77;;;13.50;;
1276;SDS011;631;51.024;13.826;2023-10-09T00:27:11;14.17;;;13.40;;
1276;SDS011;631;51.024;13.826;2023-10-09T00:29:38;14.50;;;13.60;;
1276;SDS011;631;51.024;13.826;2023-10-09T00:32:10;14.00;;;13.10;;
1276;SDS011;631;51.024;13.826;2023-10-09T00:34:41;14.13;;;13.23;;
1276;SDS011;631;51.024;13.826;2023-10-09T00:37:07;14.47;;;13.50;;
1276;SDS011;631;51.024;13.826;2023-10-09T00:39:48;14.30;;;13.50;;
1276;SDS011;631;51.024;13.826;2023-10-09T00:42:20;14.57;;;13.67;;
1276;SDS011;631;51.024;13.826;2023-10-09T00:44:57;13.60;;;12.90;;
1276;SDS011;631;51.024;13.826;2023-10-09T00:47:35;14.60;;;13.60;;
1276;SDS011;631;51.024;13.826;2023-10-09T00:50:06;14.27;;;13.40;;
1276;SDS011;631;51.024;13.826;2023-10-09T00:52:46;14.13;;;13.23;;
1276;SDS011;631;51.024;13.826;2023-10-09T00:55:26;13.53;;;12.83;;
1276;SDS011;631;51.024;13.826;2023-10-09T00:58:02;13.87;;;13.00;;
1276;SDS011;631;51.024;13.826;2023-10-09T01:00:35;14.47;;;13.67;;
1276;SDS011;631;51.024;13.826;2023-10-09T01:03:09;14.27;;;13.27;;
1276;SDS011;631;51.024;13.826;2023-10-09T01:05:51;13.90;;;13.00;;
1276;SDS011;631;51.024;13.826;2023-10-09T01:08:25;13.83;;;13.07;;
1276;SDS011;631;51.024;13.826;2023-10-09T01:11:12;14.07;;;13.27;;
1276;SDS011;631;51.024;13.826;2023-10-09T01:13:46;13.63;;;12.90;;
1276;SDS011;631;51.024;13.826;2023-10-09T01:16:16;13.50;;;12.70;;
1276;SDS011;631;51.024;13.826;2023-10-09T01:18:42;13.77;;;12.77;;
1276;SDS011;631;51.024;13.826;2023-10-09T01:21:15;14.10;;;13.07;;
1276;SDS011;631;51.024;13.826;2023-10-09T01:23:42;13.90;;;13.07;;
1276;SDS011;631;51.024;13.826;2023-10-09T01:29:00;13.83;;;13.00;;
1276;SDS011;631;51.024;13.826;2023-10-09T01:31:27;13.87;;;13.10;;
1276;SDS011;631;51.024;13.826;2023-10-09T01:33:59;13.63;;;12.87;;
1276;SDS011;631;51.024;13.826;2023-10-09T01:36:31;14.33;;;13.40;;
1276;SDS011;631;51.024;13.826;2023-10-09T01:39:00;14.30;;;13.40;;
1276;SDS011;631;51.024;13.826;2023-10-09T01:41:46;13.77;;;12.97;;
1276;SDS011;631;51.024;13.826;2023-10-09T01:44:13;13.70;;;12.90;;
1276;SDS011;631;51.024;13.826;2023-10-09T01:46:41;14.33;;;13.37;;
1276;SDS011;631;51.024;13.826;2023-10-09T01:49:08;13.80;;;13.00;;
1276;SDS011;631;51.024;13.826;2023-10-09T01:51:43;14.00;;;13.17;;
1276;SDS011;631;51.024;13.826;2023-10-09T01:54:08;13.87;;;13.07;;
1276;SDS011;631;51.024;13.826;2023-10-09T01:56:41;14.07;;;13.27;;
1276;SDS011;631;51.024;13.826;2023-10-09T01:59:11;14.37;;;13.40;;
1276;SDS011;631;51.024;13.826;2023-10-09T02:01:36;13.97;;;13.07;;
1276;SDS011;631;51.024;13.826;2023-10-09T02:04:06;13.57;;;12.87;;
1276;SDS011;631;51.024;13.826;2023-10-09T02:06:38;13.77;;;12.87;;
1276;SDS011;631;51.024;13.826;2023-10-09T02:09:05;13.93;;;13.00;;
1276;SDS011;631;51.024;13.826;2023-10-09T02:11:31;13.60;;;12.70;;
1276;SDS011;631;51.024;13.826;2023-10-09T02:14:08;13.43;;;12.63;;
1276;SDS011;631;51.024;13.826;2023-10-09T02:16:47;13.20;;;12.37;;
1276;SDS011;631;51.024;13.826;2023-10-09T02:19:33;13.30;;;12.60;;
1276;SDS011;631;51.024;13.826;2023-10-09T02:22:05;14.13;;;13.20;;
1276;SDS011;631;51.024;13.826;2023-10-09T02:24:40;13.73;;;12.93;;
1276;SDS011;631;51.024;13.826;2023-10-09T02:27:14;13.50;;;12.80;;
1276;SDS011;631;51.024;13.826;2023-10-09T02:29:59;12.40;;;11.70;;
1276;SDS011;631;51.024;13.826;2023-10-09T02:32:25;13.13;;;12.23;;
1276;SDS011;631;51.024;13.826;2023-10-09T02:34:50;13.57;;;12.77;;
1276;SDS011;631;51.024;13.826;2023-10-09T02:37:18;13.83;;;12.83;;
1276;SDS011;631;51.024;13.826;2023-10-09T02:39:48;13.93;;;13.13;;
1276;SDS011;631;51.024;13.826;2023-10-09T02:42:17;13.90;;;13.10;;
1276;SDS011;631;51.024;13.826;2023-10-09T02:44:51;13.73;;;12.90;;
1276;SDS011;631;51.024;13.826;2023-10-09T02:47:18;13.70;;;12.90;;
1276;SDS011;631;51.024;13.826;2023-10-09T02:49:54;13.70;;;12.90;;
1276;SDS011;631;51.024;13.826;2023-10-09T02:52:25;13.50;;;12.70;;
1276;SDS011;631;51.024;13.826;2023-10-09T02:54:57;13.60;;;12.80;;
1276;SDS011;631;51.024;13.826;2023-10-09T02:57:32;14.00;;;13.30;;
1276;SDS011;631;51.024;13.826;2023-10-09T03:00:05;13.50;;;12.73;;
1276;SDS011;631;51.024;13.826;2023-10-09T03:02:43;13.10;;;12.30;;
1276;SDS011;631;51.024;13.826;2023-10-09T03:05:09;13.57;;;12.77;;
1276;SDS011;631;51.024;13.826;2023-10-09T03:07:37;12.83;;;12.03;;
1276;SDS011;631;51.024;13.826;2023-10-09T03:10:05;13.87;;;12.90;;
1276;SDS011;631;51.024;13.826;2023-10-09T03:12:34;14.07;;;13.17;;
1276;SDS011;631;51.024;13.826;2023-10-09T03:15:04;14.30;;;13.43;;
1276;SDS011;631;51.024;13.826;2023-10-09T03:17:33;14.80;;;13.83;;
1276;SDS011;631;51.024;13.826;2023-10-09T03:19:59;14.20;;;13.20;;
1276;SDS011;631;51.024;13.826;2023-10-09T03:22:37;14.20;;;13.30;;
1276;SDS011;631;51.024;13.826;2023-10-09T03:25:04;13.87;;;13.00;;
1276;SDS011;631;51.024;13.826;2023-10-09T03:27:37;15.20;;;14.30;;
1276;SDS011;631;51.024;13.826;2023-10-09T03:30:10;15.50;;;14.30;;
1276;SDS011;631;51.024;13.826;2023-10-09T03:32:48;15.97;;;14.77;;
1276;SDS011;631;51.024;13.826;2023-10-09T03:35:19;16.27;;;15.17;;
1276;SDS011;631;51.024;13.826;2023-10-09T03:37:55;16.47;;;15.27;;
1276;SDS011;631;51.024;13.826;2023-10-09T03:40:25;15.60;;;14.50;;
1276;SDS011;631;51.024;13.826;2023-10-09T03:42:51;16.57;;;15.17;;
1276;SDS011;631;51.024;13.826;2023-10-09T03:45:17;17.63;;;16.27;;
1276;SDS011;631;51.024;13.826;2023-10-09T03:47:50;16.40;;;15.30;;
1276;SDS011;631;51.024;13.826;2023-10-09T03:50:21;16.40;;;15.30;;
1276;SDS011;631;51.024;13.826;2023-10-09T03:53:00;16.20;;;15.00;;
1276;SDS011;631;51.024;13.826;2023-10-09T03:55:27;16.17;;;15.00;;
1276;SDS011;631;51.024;13.826;2023-10-09T03:57:54;15.73;;;14.63;;
1276;SDS011;631;51.024;13.826;2023-10-09T04:00:23;17.20;;;16.00;;
1276;SDS011;631;51.024;13.826;2023-10-09T04:02:53;16.23;;;15.13;;
1276;SDS011;631;51.024;13.826;2023-10-09T04:05:22;17.33;;;15.93;;
1276;SDS011;631;51.024;13.826;2023-10-09T04:07:49;16.80;;;15.50;;
1276;SDS011;631;51.024;13.826;2023-10-09T04:10:18;17.97;;;16.57;;
1276;SDS011;631;51.024;13.826;2023-10-09T04:13:02;17.70;;;16.40;;
1276;SDS011;631;51.024;13.826;2023-10-09T04:15:28;17.63;;;16.30;;
1276;SDS011;631;51.024;13.826;2023-10-09T04:17:56;17.00;;;15.70;;
1276;SDS011;631;51.024;13.826;2023-10-09T04:20:21;17.20;;;15.90;;
1276;SDS011;631;51.024;13.826;2023-10-09T04:22:47;17.10;;;15.80;;
1276;SDS011;631;51.024;13.826;2023-10-09T04:25:20;17.33;;;16.03;;
1276;SDS011;631;51.024;13.826;2023-10-09T04:30:34;18.33;;;16.83;;
1276;SDS011;631;51.024;13.826;2023-10-09T04:33:05;17.33;;;16.00;;
1276;SDS011;631;51.024;13.826;2023-10-09T04:35:36;16.27;;;14.93;;
1276;SDS011;631;51.024;13.826;2023-10-09T04:38:03;17.20;;;16.00;;
1276;SDS011;631;51.024;13.826;2023-10-09T04:40:30;18.27;;;16.90;;
1276;SDS011;631;51.024;13.826;2023-10-09T04:43:17;17.30;;;16.00;;
1276;SDS011;631;51.024;13.826;2023-10-09T04:45:48;16.90;;;15.43;;
1276;SDS011;631;51.024;13.826;2023-10-09T04:48:43;15.73;;;14.53;;
1276;SDS011;631;51.024;13.826;2023-10-09T04:51:10;17.03;;;15.73;;
1276;SDS011;631;51.024;13.826;2023-10-09T04:53:58;16.50;;;15.23;;
1276;SDS011;631;51.024;13.826;2023-10-09T04:56:39;17.30;;;16.07;;
1276;SDS011;631;51.024;13.826;2023-10-09T04:59:20;16.97;;;15.57;;
1276;SDS011;631;51.024;13.826;2023-10-09T05:01:52;16.70;;;15.40;;
1276;SDS011;631;51.024;13.826;2023-10-09T05:04:25;16.70;;;15.47;;
1276;SDS011;631;51.024;13.826;2023-10-09T05:07:02;18.70;;;17.10;;
1276;SDS011;631;51.024;13.826;2023-10-09T05:09:47;17.73;;;16.37;;
1276;SDS011;631;51.024;13.826;2023-10-09T05:12:32;17.80;;;16.50;;
1276;SDS011;631;51.024;13.826;2023-10-09T05:14:58;18.90;;;16.93;;
1276;SDS011;631;51.024;13.826;2023-10-09T05:17:33;18.43;;;16.97;;
1276;SDS011;631;51.024;13.826;2023-10-09T05:20:01;17.93;;;16.63;;
1276;SDS011;631;51.024;13.826;2023-10-09T05:22:46;18.67;;;17.27;;
1276;SDS011;631;51.024;13.826;2023-10-09T05:25:27;18.87;;;17.47;;
1276;SDS011;631;51.024;13.826;2023-10-09T05:28:11;18.73;;;17.37;;
1276;SDS011;631;51.024;13.826;2023-10-09T05:30:56;19.10;;;17.60;;
1276;SDS011;631;51.024;13.826;2023-10-09T05:33:35;20.47;;;18.60;;
1276;SDS011;631;51.024;13.826;2023-10-09T05:36:04;19.00;;;17.20;;
1276;SDS011;631;51.024;13.826;2023-10-09T05:38:51;19.20;;;17.73;;
1276;SDS011;631;51.024;13.826;2023-10-09T05:41:45;19.83;;;18.23;;
1276;SDS011;631;51.024;13.826;2023-10-09T05:44:18;19.33;;;17.63;;
1276;SDS011;631;51.024;13.826;2023-10-09T05:47:07;18.90;;;17.30;;
1276;SDS011;631;51.024;13.826;2023-10-09T05:49:54;18.20;;;16.60;;
1276;SDS011;631;51.024;13.826;2023-10-09T05:52:21;18.33;;;16.70;;
1276;SDS011;631;51.024;13.826;2023-10-09T05:55:06;19.77;;;18.07;;
1276;SDS011;631;51.024;13.826;2023-10-09T05:57:44;17.60;;;16.20;;
1276;SDS011;631;51.024;13.826;2023-10-09T06:00:29;18.13;;;16.63;;
1276;SDS011;631;51.024;13.826;2023-10-09T06:03:13;18.07;;;16.63;;
1276;SDS011;631;51.024;13.826;2023-10-09T06:05:49;19.47;;;17.80;;
1276;SDS011;631;51.024;13.826;2023-10-09T06:08:36;20.30;;;18.33;;
1276;SDS011;631;51.024;13.826;2023-10-09T06:11:08;18.53;;;17.10;;
1276;SDS011;631;51.024;13.826;2023-10-09T06:13:57;18.83;;;16.97;;
1276;SDS011;631;51.024;13.826;2023-10-09T06:16:42;20.17;;;18.23;;
1276;SDS011;631;51.024;13.826;2023-10-09T06:19:09;20.30;;;18.53;;
1276;SDS011;631;51.024;13.826;2023-10-09T06:21:44;19.40;;;17.63;;
1276;SDS011;631;51.024;13.826;2023-10-09T06:24:28;20.43;;;18.70;;
1276;SDS011;631;51.024;13.826;2023-10-09T06:27:14;20.10;;;18.30;;
1276;SDS011;631;51.024;13.826;2023-10-09T06:29:52;19.27;;;17.67;;
1276;SDS011;631;51.024;13.826;2023-10-09T06:32:38;21.17;;;19.10;;
1276;SDS011;631;51.024;13.826;2023-10-09T06:35:14;20.77;;;18.67;;
1276;SDS011;631;51.024;13.826;2023-10-09T06:37:56;19.43;;;17.53;;
1276;SDS011;631;51.024;13.826;2023-10-09T06:40:26;19.67;;;17.87;;
1276;SDS011;631;51.024;13.826;2023-10-09T06:43:10;20.03;;;18.23;;
1276;SDS011;631;51.024;13.826;2023-10-09T06:46:00;21.97;;;19.80;;
1276;SDS011;631;51.024;13.826;2023-10-09T06:48:45;19.40;;;17.50;;
1276;SDS011;631;51.024;13.826;2023-10-09T06:51:14;20.00;;;18.27;;
1276;SDS011;631;51.024;13.826;2023-10-09T06:56:23;20.63;;;18.83;;
1276;SDS011;631;51.024;13.826;2023-10-09T07:01:26;20.07;;;18.13;;
1276;SDS011;631;51.024;13.826;2023-10-09T07:04:04;20.23;;;18.30;;
1276;SDS011;631;51.024;13.826;2023-10-09T07:06:49;20.17;;;18.47;;
1276;SDS011;631;51.024;13.826;2023-10-09T07:09:16;21.97;;;19.73;;
1276;SDS011;631;51.024;13.826;2023-10-09T07:11:50;22.07;;;19.97;;
1276;SDS011;631;51.024;13.826;2023-10-09T07:14:21;20.63;;;18.83;;
1276;SDS011;631;51.024;13.826;2023-10-09T07:19:46;19.93;;;18.07;;
1276;SDS011;631;51.024;13.826;2023-10-09T07:22:12;19.53;;;17.80;;
1276;SDS011;631;51.024;13.826;2023-10-09T07:24:47;21.73;;;19.70;;
1276;SDS011;631;51.024;13.826;2023-10-09T07:27:23;21.23;;;19.30;;
1276;SDS011;631;51.024;13.826;2023-10-09T07:30:16;21.17;;;19.27;;
1276;SDS011;631;51.024;13.826;2023-10-09T07:32:52;21.97;;;19.87;;
1276;SDS011;631;51.024;13.826;2023-10-09T07:35:20;21.80;;;19.67;;
1276;SDS011;631;51.024;13.826;2023-10-09T07:38:04;20.90;;;18.70;;
1276;SDS011;631;51.024;13.826;2023-10-09T07:40:33;21.30;;;19.40;;
1276;SDS011;631;51.024;13.826;2023-10-09T07:43:17;22.10;;;20.07;;
1276;SDS011;631;51.024;13.826;2023-10-09T07:45:43;21.63;;;19.47;;
1276;SDS011;631;51.024;13.826;2023-10-09T07:48:14;21.57;;;19.23;;
1276;SDS011;631;51.024;13.826;2023-10-09T07:50:40;21.87;;;19.77;;
1276;SDS011;631;51.024;13.826;2023-10-09T07:53:09;22.03;;;19.77;;
1276;SDS011;631;51.024;13.826;2023-10-09T07:55:46;23.80;;;21.57;;
1276;SDS011;631;51.024;13.826;2023-10-09T07:58:31;22.50;;;20.27;;
1276;SDS011;631;51.024;13.826;2023-10-09T08:00:58;21.13;;;19.13;;
1276;SDS011;631;51.024;13.826;2023-10-09T08:03:40;22.63;;;20.50;;
1276;SDS011;631;51.024;13.826;2023-10-09T08:06:06;22.37;;;20.23;;
1276;SDS011;631;51.024;13.826;2023-10-09T08:08:52;22.23;;;20.23;;
1276;SDS011;631;51.024;13.826;2023-10-09T08:11:36;23.13;;;19.27;;
1276;SDS011;631;51.024;13.826;2023-10-09T08:14:11;22.70;;;20.30;;
1276;SDS011;631;51.024;13.826;2023-10-09T08:17:06;22.50;;;20.40;;
1276;SDS011;631;51.024;13.826;2023-10-09T08:19:42;21.30;;;19.50;;
1276;SDS011;631;51.024;13.826;2023-10-09T08:22:26;22.53;;;20.43;;
1276;SDS011;631;51.024;13.826;2023-10-09T08:24:55;20.93;;;18.97;;
1276;SDS011;631;51.024;13.826;2023-10-09T08:27:22;22.77;;;20.53;;
1276;SDS011;631;51.024;13.826;2023-10-09T08:30:00;22.40;;;20.30;;
1276;SDS011;631;51.024;13.826;2023-10-09T08:32:56;21.80;;;19.70;;
1276;SDS011;631;51.024;13.826;2023-10-09T08:35:32;20.57;;;18.77;;
1276;SDS011;631;51.024;13.826;2023-10-09T08:38:02;21.70;;;19.80;;
1276;SDS011;631;51.024;13.826;2023-10-09T08:40:34;21.77;;;19.77;;
1276;SDS011;631;51.024;13.826;2023-10-09T08:45:37;22.00;;;19.90;;
1276;SDS011;631;51.024;13.826;2023-10-09T08:48:04;21.73;;;19.63;;
1276;SDS011;631;51.024;13.826;2023-10-09T08:50:32;22.97;;;20.57;;
1276;SDS011;631;51.024;13.826;2023-10-09T08:52:59;21.73;;;19.70;;
1276;SDS011;631;51.024;13.826;2023-10-09T08:55:28;23.17;;;21.00;;
1276;SDS011;631;51.024;13.826;2023-10-09T08:57:54;22.77;;;20.67;;
1276;SDS011;631;51.024;13.826;2023-10-09T09:00:22;24.20;;;20.80;;
1276;SDS011;631;51.024;13.826;2023-10-09T09:02:58;21.20;;;19.33;;
1276;SDS011;631;51.024;13.826;2023-10-09T09:05:25;23.17;;;21.13;;
1276;SDS011;631;51.024;13.826;2023-10-09T09:07:53;22.70;;;20.50;;
1276;SDS011;631;51.024;13.826;2023-10-09T09:10:27;23.17;;;21.13;;
1276;SDS011;631;51.024;13.826;2023-10-09T09:13:03;25.40;;;23.00;;
1276;SDS011;631;51.024;13.826;2023-10-09T09:15:32;23.83;;;21.60;;
1276;SDS011;631;51.024;13.826;2023-10-09T09:18:07;25.63;;;23.23;;
1276;SDS011;631;51.024;13.826;2023-10-09T09:20:37;23.60;;;21.30;;
1276;SDS011;631;51.024;13.826;2023-10-09T09:23:05;24.10;;;21.60;;
1276;SDS011;631;51.024;13.826;2023-10-09T09:28:11;22.90;;;20.80;;
1276;SDS011;631;51.024;13.826;2023-10-09T09:30:47;22.20;;;20.30;;
1276;SDS011;631;51.024;13.826;2023-10-09T09:33:24;23.43;;;21.23;;
1276;SDS011;631;51.024;13.826;2023-10-09T09:36:06;23.10;;;20.70;;
1276;SDS011;631;51.024;13.826;2023-10-09T09:38:32;22.53;;;20.23;;
1276;SDS011;631;51.024;13.826;2023-10-09T09:41:18;23.07;;;20.87;;
1276;SDS011;631;51.024;13.826;2023-10-09T09:43:53;22.23;;;20.03;;
1276;SDS011;631;51.024;13.826;2023-10-09T09:46:31;23.37;;;20.90;;
1276;SDS011;631;51.024;13.826;2023-10-09T09:49:02;22.47;;;20.17;;
1276;SDS011;631;51.024;13.826;2023-10-09T09:51:30;22.67;;;20.57;;
1276;SDS011;631;51.024;13.826;2023-10-09T09:53:57;21.90;;;19.90;;
1276;SDS011;631;51.024;13.826;2023-10-09T09:56:25;21.87;;;19.77;;
1276;SDS011;631;51.024;13.826;2023-10-09T09:58:53;21.50;;;19.30;;
1276;SDS011;631;51.024;13.826;2023-10-09T10:01:23;22.47;;;20.37;;
1276;SDS011;631;51.024;13.826;2023-10-09T10:03:56;22.30;;;20.30;;
1276;SDS011;631;51.024;13.826;2023-10-09T10:06:25;22.47;;;20.27;;
1276;SDS011;631;51.024;13.826;2023-10-09T10:08:54;22.40;;;20.20;;
1276;SDS011;631;51.024;13.826;2023-10-09T10:14:09;19.90;;;18.10;;
1276;SDS011;631;51.024;13.826;2023-10-09T10:19:25;19.90;;;17.90;;
1276;SDS011;631;51.024;13.826;2023-10-09T10:22:46;19.33;;;17.53;;
1276;SDS011;631;51.024;13.826;2023-10-09T10:31:07;19.33;;;17.57;;
1276;SDS011;631;51.024;13.826;2023-10-09T10:36:19;20.00;;;18.10;;
1276;SDS011;631;51.024;13.826;2023-10-09T10:39:07;18.47;;;16.87;;
1276;SDS011;631;51.024;13.826;2023-10-09T10:41:54;18.70;;;17.20;;
1276;SDS011;631;51.024;13.826;2023-10-09T10:44:27;18.80;;;17.40;;
1276;SDS011;631;51.024;13.826;2023-10-09T10:47:06;17.63;;;16.20;;
1276;SDS011;631;51.024;13.826;2023-10-09T10:49:47;19.10;;;17.50;;
1276;SDS011;631;51.024;13.826;2023-10-09T10:52:22;19.00;;;17.20;;
1276;SDS011;631;51.024;13.826;2023-10-09T10:55:09;19.23;;;17.43;;
1276;SDS011;631;51.024;13.826;2023-10-09T10:57:43;18.80;;;17.10;;
1276;SDS011;631;51.024;13.826;2023-10-09T11:00:18;19.83;;;18.13;;
1276;SDS011;631;51.024;13.826;2023-10-09T11:03:03;18.97;;;17.17;;
1276;SDS011;631;51.024;13.826;2023-10-09T11:05:48;19.03;;;17.33;;
1276;SDS011;631;51.024;13.826;2023-10-09T11:08:18;19.77;;;18.00;;
1276;SDS011;631;51.024;13.826;2023-10-09T11:10:49;20.03;;;18.23;;
1276;SDS011;631;51.024;13.826;2023-10-09T11:13:25;19.43;;;17.63;;
1276;SDS011;631;51.024;13.826;2023-10-09T11:16:17;19.50;;;17.83;;
1276;SDS011;631;51.024;13.826;2023-10-09T11:19:01;19.43;;;17.97;;
1276;SDS011;631;51.024;13.826;2023-10-09T11:21:38;19.90;;;18.40;;
1276;SDS011;631;51.024;13.826;2023-10-09T11:24:07;21.03;;;19.30;;
1276;SDS011;631;51.024;13.826;2023-10-09T11:26:49;21.63;;;19.80;;
1276;SDS011;631;51.024;13.826;2023-10-09T11:29:24;20.43;;;18.67;;
1276;SDS011;631;51.024;13.826;2023-10-09T11:32:08;21.67;;;19.80;;
1276;SDS011;631;51.024;13.826;2023-10-09T11:34:47;19.77;;;18.17;;
1276;SDS011;631;51.024;13.826;2023-10-09T11:37:21;21.27;;;19.57;;
1276;SDS011;631;51.024;13.826;2023-10-09T11:39:54;20.00;;;18.40;;
1276;SDS011;631;51.024;13.826;2023-10-09T11:42:21;21.80;;;19.87;;
1276;SDS011;631;51.024;13.826;2023-10-09T11:45:21;21.30;;;19.50;;
1276;SDS011;631;51.024;13.826;2023-10-09T11:47:49;21.77;;;20.07;;
1276;SDS011;631;51.024;13.826;2023-10-09T11:53:14;20.70;;;18.90;;
1276;SDS011;631;51.024;13.826;2023-10-09T11:55:58;22.87;;;20.70;;
1276;SDS011;631;51.024;13.826;2023-10-09T11:58:24;21.20;;;19.50;;
1276;SDS011;631;51.024;13.826;2023-10-09T12:03:29;23.70;;;21.60;;
1276;SDS011;631;51.024;13.826;2023-10-09T12:05:56;22.67;;;20.43;;
1276;SDS011;631;51.024;13.826;2023-10-09T12:08:29;23.07;;;21.07;;
1276;SDS011;631;51.024;13.826;2023-10-09T12:10:55;23.07;;;20.77;;
1276;SDS011;631;51.024;13.826;2023-10-09T12:13:21;23.47;;;21.17;;
1276;SDS011;631;51.024;13.826;2023-10-09T12:15:48;23.47;;;21.57;;
1276;SDS011;631;51.024;13.826;2023-10-09T12:18:16;25.33;;;22.70;;
1276;SDS011;631;51.024;13.826;2023-10-09T12:20:43;24.80;;;22.40;;
1276;SDS011;631;51.024;13.826;2023-10-09T12:23:16;23.30;;;21.20;;
1276;SDS011;631;51.024;13.826;2023-10-09T12:25:47;23.60;;;21.10;;
1276;SDS011;631;51.024;13.826;2023-10-09T12:28:14;23.87;;;21.37;;
1276;SDS011;631;51.024;13.826;2023-10-09T12:30:45;24.50;;;21.90;;
1276;SDS011;631;51.024;13.826;2023-10-09T12:33:15;24.50;;;22.20;;
1276;SDS011;631;51.024;13.826;2023-10-09T12:35:43;24.07;;;21.80;;
1276;SDS011;631;51.024;13.826;2023-10-09T12:38:10;25.23;;;22.93;;
1276;SDS011;631;51.024;13.826;2023-10-09T12:40:37;22.20;;;20.23;;
1276;SDS011;631;51.024;13.826;2023-10-09T12:43:06;22.80;;;20.80;;
1276;SDS011;631;51.024;13.826;2023-10-09T12:45:40;23.23;;;21.17;;
1276;SDS011;631;51.024;13.826;2023-10-09T12:48:06;22.57;;;20.60;;
1276;SDS011;631;51.024;13.826;2023-10-09T12:50:35;22.60;;;20.60;;
1276;SDS011;631;51.024;13.826;2023-10-09T12:53:06;23.10;;;20.90;;
1276;SDS011;631;51.024;13.826;2023-10-09T12:55:39;22.33;;;20.37;;
1276;SDS011;631;51.024;13.826;2023-10-09T12:58:06;23.57;;;21.30;;
1276;SDS011;631;51.024;13.826;2023-10-09T13:00:39;22.73;;;20.60;;
1276;SDS011;631;51.024;13.826;2023-10-09T13:03:09;24.10;;;21.90;;
1276;SDS011;631;51.024;13.826;2023-10-09T13:05:45;23.70;;;21.27;;
1276;SDS011;631;51.024;13.826;2023-10-09T13:08:23;23.07;;;21.07;;
1276;SDS011;631;51.024;13.826;2023-10-09T13:10:56;23.40;;;21.33;;
1276;SDS011;631;51.024;13.826;2023-10-09T13:13:28;24.73;;;22.33;;
1276;SDS011;631;51.024;13.826;2023-10-09T13:16:19;21.87;;;20.00;;
1276;SDS011;631;51.024;13.826;2023-10-09T13:18:49;24.80;;;21.70;;
1276;SDS011;631;51.024;13.826;2023-10-09T13:21:23;24.07;;;22.07;;
1276;SDS011;631;51.024;13.826;2023-10-09T13:23:57;23.60;;;21.60;;
1276;SDS011;631;51.024;13.826;2023-10-09T13:26:25;22.77;;;20.77;;
1276;SDS011;631;51.024;13.826;2023-10-09T13:28:53;23.53;;;21.47;;
1276;SDS011;631;51.024;13.826;2023-10-09T13:31:20;21.03;;;19.23;;
1276;SDS011;631;51.024;13.826;2023-10-09T13:33:48;23.40;;;21.50;;
1276;SDS011;631;51.024;13.826;2023-10-09T13:36:14;22.87;;;20.80;;
1276;SDS011;631;51.024;13.826;2023-10-09T13:38:56;23.10;;;21.00;;
1276;SDS011;631;51.024;13.826;2023-10-09T13:41:48;22.77;;;20.87;;
1276;SDS011;631;51.024;13.826;2023-10-09T13:44:27;22.43;;;20.40;;
1276;SDS011;631;51.024;13.826;2023-10-09T13:46:54;23.40;;;21.20;;
1276;SDS011;631;51.024;13.826;2023-10-09T13:49:21;21.90;;;19.73;;
1276;SDS011;631;51.024;13.826;2023-10-09T13:51:48;23.30;;;21.10;;
1276;SDS011;631;51.024;13.826;2023-10-09T13:54:15;22.90;;;20.97;;
1276;SDS011;631;51.024;13.826;2023-10-09T13:56:49;23.37;;;21.40;;
1276;SDS011;631;51.024;13.826;2023-10-09T13:59:21;22.80;;;20.80;;
1276;SDS011;631;51.024;13.826;2023-10-09T14:01:50;22.33;;;20.43;;
1276;SDS011;631;51.024;13.826;2023-10-09T14:04:19;22.43;;;20.53;;
1276;SDS011;631;51.024;13.826;2023-10-09T14:06:46;23.60;;;21.40;;
1276;SDS011;631;51.024;13.826;2023-10-09T14:09:21;23.10;;;21.20;;
1276;SDS011;631;51.024;13.826;2023-10-09T14:12:02;23.60;;;21.30;;
1276;SDS011;631;51.024;13.826;2023-10-09T14:14:35;23.20;;;21.40;;
1276;SDS011;631;51.024;13.826;2023-10-09T14:17:14;23.57;;;21.10;;
1276;SDS011;631;51.024;13.826;2023-10-09T14:19:46;23.60;;;21.60;;
1276;SDS011;631;51.024;13.826;2023-10-09T14:22:19;22.07;;;20.37;;
1276;SDS011;631;51.024;13.826;2023-10-09T14:24:49;22.27;;;20.47;;
1276;SDS011;631;51.024;13.826;2023-10-09T14:27:20;22.13;;;20.43;;
1276;SDS011;631;51.024;13.826;2023-10-09T14:29:50;23.30;;;21.20;;
1276;SDS011;631;51.024;13.826;2023-10-09T14:32:17;22.80;;;20.70;;
1276;SDS011;631;51.024;13.826;2023-10-09T14:34:43;23.73;;;21.73;;
1276;SDS011;631;51.024;13.826;2023-10-09T14:37:15;22.90;;;21.00;;
1276;SDS011;631;51.024;13.826;2023-10-09T14:39:43;23.23;;;21.40;;
1276;SDS011;631;51.024;13.826;2023-10-09T14:42:13;23.77;;;21.57;;
1276;SDS011;631;51.024;13.826;2023-10-09T14:44:40;24.27;;;22.17;;
1276;SDS011;631;51.024;13.826;2023-10-09T14:47:06;23.40;;;21.47;;
1276;SDS011;631;51.024;13.826;2023-10-09T14:49:33;23.60;;;21.40;;
1276;SDS011;631;51.024;13.826;2023-10-09T14:52:12;24.80;;;22.30;;
1276;SDS011;631;51.024;13.826;2023-10-09T14:54:44;22.83;;;20.90;;
1276;SDS011;631;51.024;13.826;2023-10-09T14:57:11;23.47;;;21.37;;
1276;SDS011;631;51.024;13.826;2023-10-09T14:59:37;24.27;;;22.17;;
1276;SDS011;631;51.024;13.826;2023-10-09T15:02:03;23.77;;;21.80;;
1276;SDS011;631;51.024;13.826;2023-10-09T15:04:32;24.17;;;22.07;;
1276;SDS011;631;51.024;13.826;2023-10-09T15:07:01;24.10;;;22.07;;
1276;SDS011;631;51.024;13.826;2023-10-09T15:09:26;23.00;;;21.20;;
1276;SDS011;631;51.024;13.826;2023-10-09T15:11:56;23.57;;;21.50;;
1276;SDS011;631;51.024;13.826;2023-10-09T15:14:23;23.87;;;21.77;;
1276;SDS011;631;51.024;13.826;2023-10-09T15:16:48;22.83;;;21.03;;
1276;SDS011;631;51.024;13.826;2023-10-09T15:19:15;21.50;;;19.77;;
1276;SDS011;631;51.024;13.826;2023-10-09T15:21:41;22.70;;;21.00;;
1276;SDS011;631;51.024;13.826;2023-10-09T15:24:10;23.80;;;21.70;;
1276;SDS011;631;51.024;13.826;2023-10-09T15:26:44;23.27;;;21.47;;
1276;SDS011;631;51.024;13.826;2023-10-09T15:29:17;20.80;;;19.13;;
1276;SDS011;631;51.024;13.826;2023-10-09T15:31:44;22.70;;;20.90;;
1276;SDS011;631;51.024;13.826;2023-10-09T15:34:12;21.00;;;19.50;;
1276;SDS011;631;51.024;13.826;2023-10-09T15:36:37;20.00;;;18.53;;
1276;SDS011;631;51.024;13.826;2023-10-09T15:39:05;46.80;;;42.23;;
1276;SDS011;631;51.024;13.826;2023-10-09T15:41:33;30.07;;;27.50;;
1276;SDS011;631;51.024;13.826;2023-10-09T15:43:59;26.07;;;23.77;;
1276;SDS011;631;51.024;13.826;2023-10-09T15:46:26;26.00;;;23.80;;
1276;SDS011;631;51.024;13.826;2023-10-09T15:48:52;22.27;;;20.57;;
1276;SDS011;631;51.024;13.826;2023-10-09T15:51:18;23.90;;;21.83;;
1276;SDS011;631;51.024;13.826;2023-10-09T15:53:45;21.10;;;19.60;;
1276;SDS011;631;51.024;13.826;2023-10-09T15:56:11;25.33;;;23.63;;
1276;SDS011;631;51.024;13.826;2023-10-09T15:58:41;21.97;;;20.43;;
1276;SDS011;631;51.024;13.826;2023-10-09T16:01:11;21.47;;;19.87;;
1276;SDS011;631;51.024;13.826;2023-10-09T16:03:43;23.33;;;21.73;;